Time;durP1;ratioP1;P1;durP2;ratioP2;P2;SDS_P1;SDS_P2;PMS_P1;PMS_P2;Temp;Humidity;BMP_temperature;BMP_pressure;BME280_temperature;BME280_humidity;BME280_pressure;Samples;Min_cycle;Max_cycle;Signal;HPM_P1;HPM_P2
2023/03/03 00:01:26;;;;;;;158.38;23.30;;;2.10;99.90;;;;;;5014900;28;20046;-69
2023/03/03 00:03:53;;;;;;;178.50;24.83;;;2.10;99.90;;;;;;5015315;28;20099;-70
2023/03/03 00:06:19;;;;;;;172.73;23.45;;;2.10;99.90;;;;;;5030268;28;20395;-70
2023/03/03 00:08:45;;;;;;;86.50;19.30;;;2.10;99.90;;;;;;5025576;28;20033;-70
2023/03/03 00:11:11;;;;;;;113.25;20.48;;;2.10;99.90;;;;;;5034050;28;20061;-70
2023/03/03 00:13:50;;;;;;;96.53;19.77;;;2.10;99.90;;;;;;5027382;28;20499;-70
2023/03/03 00:16:24;;;;;;;80.70;20.67;;;2.10;99.90;;;;;;5030734;28;20056;-69
2023/03/03 00:18:51;;;;;;;132.30;21.10;;;2.10;99.90;;;;;;5019043;28;20057;-69
2023/03/03 00:21:39;;;;;;;206.68;24.83;;;2.10;99.90;;;;;;5025126;28;20076;-69
2023/03/03 00:24:43;;;;;;;110.68;20.58;;;2.10;99.90;;;;;;5029525;28;20586;-69
2023/03/03 00:27:33;;;;;;;81.22;19.13;;;2.10;99.90;;;;;;5017417;28;20046;-69
2023/03/03 00:29:59;;;;;;;168.07;22.95;;;2.10;99.90;;;;;;5044937;28;20041;-69
2023/03/03 00:32:51;;;;;;;205.18;25.10;;;2.10;99.90;;;;;;5032047;28;20392;-69
2023/03/03 00:35:37;;;;;;;80.70;18.05;;;2.00;99.90;;;;;;5014471;28;20034;-69
2023/03/03 00:38:16;;;;;;;150.82;20.60;;;2.00;99.90;;;;;;5029972;28;20483;-70
2023/03/03 00:40:42;;;;;;;89.32;18.80;;;2.10;99.90;;;;;;5031825;28;20073;-70
2023/03/03 00:43:34;;;;;;;98.72;17.88;;;2.00;99.90;;;;;;5032250;28;20564;-70
2023/03/03 00:46:00;;;;;;;124.50;17.17;;;2.00;99.90;;;;;;5015077;28;20528;-70
2023/03/03 00:48:30;;;;;;;132.20;18.35;;;2.10;99.90;;;;;;5032417;28;20080;-69
2023/03/03 00:50:58;;;;;;;178.18;18.83;;;2.00;99.90;;;;;;5032256;28;20033;-70
2023/03/03 00:53:26;;;;;;;120.60;18.55;;;1.90;99.90;;;;;;5028019;28;20068;-69
2023/03/03 00:55:52;;;;;;;113.63;16.60;;;2.00;99.90;;;;;;5031134;28;20088;-69
2023/03/03 00:58:20;;;;;;;97.65;16.92;;;2.00;99.90;;;;;;5033141;28;20092;-69
2023/03/03 01:00:48;;;;;;;69.72;15.75;;;2.00;99.90;;;;;;5028948;28;20077;-69
2023/03/03 01:03:20;;;;;;;83.90;15.13;;;1.90;99.90;;;;;;5028571;28;20041;-70
2023/03/03 01:05:46;;;;;;;134.23;16.58;;;1.80;99.90;;;;;;5032422;28;20800;-70
2023/03/03 01:08:12;;;;;;;199.50;15.48;;;1.80;99.90;;;;;;5014919;28;20041;-70
2023/03/03 01:10:44;;;;;;;187.80;17.30;;;1.70;99.90;;;;;;5022864;28;20149;-70
2023/03/03 01:13:10;;;;;;;145.13;15.55;;;1.70;99.90;;;;;;5027544;28;20037;-70
2023/03/03 01:15:36;;;;;;;50.33;13.27;;;1.60;99.90;;;;;;5031079;28;20044;-69
2023/03/03 01:18:02;;;;;;;91.63;13.65;;;1.60;99.90;;;;;;5031768;28;20387;-69
2023/03/03 01:20:28;;;;;;;147.85;15.32;;;1.50;99.90;;;;;;5030466;28;20087;-70
2023/03/03 01:22:53;;;;;;;44.28;12.82;;;1.50;99.90;;;;;;5030838;28;20091;-70
2023/03/03 01:25:19;;;;;;;128.65;13.68;;;1.50;99.90;;;;;;5031392;28;20056;-70
2023/03/03 01:27:44;;;;;;;189.25;14.52;;;1.50;99.90;;;;;;5028562;28;20410;-69
2023/03/03 01:30:10;;;;;;;95.75;12.90;;;1.40;99.90;;;;;;5030688;28;20038;-70
2023/03/03 01:32:36;;;;;;;62.10;12.55;;;1.40;99.90;;;;;;5032435;28;20030;-70
2023/03/03 01:35:02;;;;;;;103.68;14.05;;;1.20;99.90;;;;;;5032600;28;20042;-70
2023/03/03 01:37:27;;;;;;;114.22;13.50;;;1.20;99.90;;;;;;5029117;28;20038;-69
2023/03/03 01:39:54;;;;;;;152.23;13.65;;;1.10;99.90;;;;;;5033404;28;20405;-69
2023/03/03 01:42:20;;;;;;;81.78;12.63;;;1.10;99.90;;;;;;5030775;28;20049;-69
2023/03/03 01:44:46;;;;;;;124.00;14.57;;;1.00;99.90;;;;;;5031450;28;20040;-69
2023/03/03 01:47:15;;;;;;;83.10;12.73;;;1.00;99.90;;;;;;5022809;28;20053;-69
2023/03/03 01:49:48;;;;;;;;;;;1.00;99.90;;;;;;5032445;28;20038;-69
2023/03/03 01:52:33;;;;;;;57.15;12.77;;;0.90;99.90;;;;;;5032232;28;19917;-69
2023/03/03 01:55:03;;;;;;;77.22;12.35;;;0.90;99.90;;;;;;5031004;28;20037;-69
2023/03/03 01:57:37;;;;;;;112.95;13.43;;;0.80;99.90;;;;;;5028712;28;20045;-69
2023/03/03 02:00:05;;;;;;;101.45;13.45;;;0.80;99.90;;;;;;5030248;28;20057;-69
2023/03/03 02:02:31;;;;;;;146.40;14.05;;;0.80;99.90;;;;;;5029913;28;20050;-70
2023/03/03 02:04:57;;;;;;;89.38;11.90;;;0.80;99.90;;;;;;5030979;28;20069;-70
2023/03/03 02:07:26;;;;;;;78.32;13.95;;;0.80;99.90;;;;;;5026935;28;20065;-71
2023/03/03 02:10:20;;;;;;;60.33;12.00;;;0.70;99.90;;;;;;5031739;28;20049;-70
2023/03/03 02:12:50;;;;;;;40.53;11.75;;;0.70;99.90;;;;;;5030414;28;20054;-69
2023/03/03 02:15:17;;;;;;;39.95;11.35;;;0.60;99.90;;;;;;5028735;28;20030;-69
2023/03/03 02:17:43;;;;;;;35.83;11.13;;;0.60;99.90;;;;;;5027802;28;20037;-69
2023/03/03 02:20:37;;;;;;;39.22;12.25;;;0.60;99.90;;;;;;5031908;28;20045;-69
2023/03/03 02:23:08;;;;;;;23.42;10.63;;;0.50;99.90;;;;;;5028207;28;20083;-69
2023/03/03 02:25:50;;;;;;;21.38;10.25;;;0.40;99.90;;;;;;5027455;28;20053;-69
2023/03/03 02:28:16;;;;;;;22.00;10.95;;;0.40;99.90;;;;;;5027896;28;20046;-69
2023/03/03 02:30:41;;;;;;;19.60;10.13;;;0.40;99.90;;;;;;5030694;28;20113;-69
2023/03/03 02:33:07;;;;;;;17.95;8.95;;;0.40;99.90;;;;;;5031136;28;20487;-69
2023/03/03 02:35:38;;;;;;;17.90;9.65;;;0.30;99.90;;;;;;5016953;28;20038;-69
2023/03/03 02:38:25;;;;;;;23.40;9.80;;;0.30;99.90;;;;;;5012847;28;20132;-69
2023/03/03 02:41:24;;;;;;;16.17;9.20;;;0.30;99.90;;;;;;5029133;28;20045;-69
2023/03/03 02:44:00;;;;;;;19.27;9.52;;;0.20;99.90;;;;;;5034436;28;20045;-70
2023/03/03 02:46:27;;;;;;;21.00;9.90;;;0.20;99.90;;;;;;5025954;28;20491;-69
2023/03/03 02:48:53;;;;;;;18.75;9.75;;;0.20;99.90;;;;;;5034846;28;20060;-69
2023/03/03 02:51:19;;;;;;;18.33;8.80;;;0.20;99.90;;;;;;5033857;28;20487;-69
2023/03/03 02:53:45;;;;;;;17.15;9.00;;;0.10;99.90;;;;;;5033374;28;20044;-69
2023/03/03 02:56:10;;;;;;;15.07;8.43;;;0.10;99.90;;;;;;5027810;28;20037;-70
2023/03/03 02:58:36;;;;;;;17.38;9.57;;;0.10;99.90;;;;;;5032035;28;20072;-69
2023/03/03 03:01:03;;;;;;;20.40;9.13;;;0.10;99.90;;;;;;5031455;28;20073;-69
2023/03/03 03:03:29;;;;;;;18.13;9.38;;;0.10;99.90;;;;;;5033076;28;20041;-69
2023/03/03 03:05:54;;;;;;;19.38;9.23;;;0.10;99.90;;;;;;5032308;28;20103;-71
2023/03/03 03:08:20;;;;;;;19.23;9.07;;;0.10;99.90;;;;;;5032913;28;20397;-69
2023/03/03 03:10:46;;;;;;;17.05;8.98;;;0.00;99.90;;;;;;5033702;28;20580;-69
2023/03/03 03:13:12;;;;;;;18.92;9.48;;;0.00;99.90;;;;;;5031342;28;20037;-69
2023/03/03 03:15:38;;;;;;;15.30;8.93;;;0.00;99.90;;;;;;5028831;28;20037;-68
2023/03/03 03:18:03;;;;;;;15.48;9.02;;;0.00;99.90;;;;;;5033406;28;20092;-68
2023/03/03 03:20:29;;;;;;;19.35;9.95;;;0.00;99.90;;;;;;5033196;28;20060;-69
2023/03/03 03:22:55;;;;;;;15.63;7.97;;;-0.10;99.90;;;;;;5025879;28;20041;-69
2023/03/03 03:25:20;;;;;;;14.82;8.55;;;0.00;99.90;;;;;;5031769;28;20440;-69
2023/03/03 03:27:46;;;;;;;14.55;8.00;;;-0.10;99.90;;;;;;5032334;28;20095;-69
2023/03/03 03:30:12;;;;;;;22.25;11.25;;;-0.10;99.90;;;;;;5044484;28;20398;-69
2023/03/03 03:32:38;;;;;;;13.05;7.72;;;-0.20;99.90;;;;;;5029505;28;20042;-69
2023/03/03 03:35:04;;;;;;;16.38;8.30;;;-0.20;99.90;;;;;;5029664;28;20509;-69
2023/03/03 03:37:29;;;;;;;18.15;8.68;;;-0.20;99.90;;;;;;5032087;28;20037;-69
2023/03/03 03:39:55;;;;;;;15.95;8.35;;;-0.20;99.90;;;;;;5033315;28;20040;-68
2023/03/03 03:42:21;;;;;;;14.85;7.93;;;-0.20;99.90;;;;;;5031691;28;20038;-68
2023/03/03 03:44:46;;;;;;;15.63;8.20;;;-0.30;99.90;;;;;;5030163;28;20311;-68
2023/03/03 03:47:12;;;;;;;15.00;8.15;;;-0.30;99.90;;;;;;5029892;28;20486;-68
2023/03/03 03:49:38;;;;;;;15.90;7.97;;;-0.30;99.90;;;;;;5033819;28;20049;-68
2023/03/03 03:52:04;;;;;;;19.52;8.48;;;-0.30;99.90;;;;;;5030136;28;20397;-69
2023/03/03 03:54:29;;;;;;;15.73;8.60;;;-0.30;99.90;;;;;;5031320;28;20042;-69
2023/03/03 03:56:55;;;;;;;20.08;8.95;;;-0.40;99.90;;;;;;5032581;28;20134;-70
2023/03/03 03:59:20;;;;;;;18.00;8.63;;;-0.40;99.90;;;;;;5032675;28;20060;-69
2023/03/03 04:01:47;;;;;;;16.20;9.15;;;-0.30;99.90;;;;;;5030130;28;20034;-69
2023/03/03 04:04:13;;;;;;;16.50;8.02;;;-0.40;99.90;;;;;;5024050;28;20049;-68
2023/03/03 04:06:38;;;;;;;15.43;7.50;;;-0.40;99.90;;;;;;5028243;28;20041;-68
2023/03/03 04:09:04;;;;;;;20.45;8.13;;;-0.40;99.90;;;;;;5032122;28;20391;-68
2023/03/03 04:11:30;;;;;;;15.35;7.90;;;-0.40;99.90;;;;;;5031639;28;20686;-68
2023/03/03 04:13:55;;;;;;;17.63;8.07;;;-0.40;99.90;;;;;;5033214;28;20053;-68
2023/03/03 04:16:21;;;;;;;14.90;7.65;;;-0.50;99.90;;;;;;5030626;28;20116;-68
2023/03/03 04:18:47;;;;;;;15.55;7.47;;;-0.50;99.90;;;;;;5032264;28;20042;-68
2023/03/03 04:21:14;;;;;;;18.85;8.38;;;-0.50;99.90;;;;;;5033278;28;20044;-70
2023/03/03 04:23:40;;;;;;;13.85;7.20;;;-0.50;99.90;;;;;;5031620;28;20650;-69
2023/03/03 04:26:06;;;;;;;16.67;8.05;;;-0.50;99.90;;;;;;5032310;28;20087;-68
2023/03/03 04:28:31;;;;;;;15.38;8.02;;;-0.50;99.90;;;;;;5032879;28;20087;-69
2023/03/03 04:30:57;;;;;;;16.90;8.38;;;-0.50;99.90;;;;;;5028669;28;20085;-68
2023/03/03 04:33:23;;;;;;;19.13;8.20;;;-0.50;99.90;;;;;;5015020;28;20066;-68
2023/03/03 04:35:50;;;;;;;15.95;7.40;;;-0.50;99.90;;;;;;5033234;28;20042;-68
2023/03/03 04:38:16;;;;;;;15.55;7.70;;;-0.50;99.90;;;;;;5033454;28;20096;-69
2023/03/03 04:40:41;;;;;;;13.38;7.55;;;-0.50;99.90;;;;;;5032508;28;20073;-69
2023/03/03 04:43:08;;;;;;;17.98;8.52;;;-0.50;99.90;;;;;;5021385;28;20103;-69
2023/03/03 04:45:33;;;;;;;15.02;8.38;;;-0.50;99.90;;;;;;5030989;28;20041;-69
2023/03/03 04:47:59;;;;;;;15.48;8.32;;;-0.50;99.90;;;;;;5027180;28;20530;-69
2023/03/03 04:50:25;;;;;;;16.48;8.35;;;-0.50;99.90;;;;;;5030542;28;20038;-69
2023/03/03 04:52:50;;;;;;;14.38;8.00;;;-0.60;99.90;;;;;;5016309;28;20042;-69
2023/03/03 04:55:16;;;;;;;18.08;8.32;;;-0.60;99.90;;;;;;5026866;28;20091;-69
2023/03/03 04:57:42;;;;;;;18.90;8.73;;;-0.60;99.90;;;;;;5029028;28;20041;-68
2023/03/03 05:00:11;;;;;;;18.05;8.50;;;-0.60;99.90;;;;;;5029779;28;20501;-69
2023/03/03 05:02:38;;;;;;;16.02;7.60;;;-0.50;99.90;;;;;;5030054;28;20076;-68
2023/03/03 05:05:04;;;;;;;16.88;8.32;;;-0.60;99.90;;;;;;5029990;28;20116;-69
2023/03/03 05:07:30;;;;;;;19.40;8.35;;;-0.60;99.90;;;;;;5031746;28;20045;-68
2023/03/03 05:09:55;;;;;;;13.48;7.30;;;-0.50;99.90;;;;;;5029946;28;20087;-69
2023/03/03 05:12:21;;;;;;;17.48;8.57;;;-0.50;99.90;;;;;;5029724;28;20180;-69
2023/03/03 05:14:47;;;;;;;17.90;7.82;;;-0.50;99.90;;;;;;5031010;28;20482;-69
2023/03/03 05:17:13;;;;;;;18.70;7.97;;;-0.40;99.90;;;;;;5027200;28;20053;-69
2023/03/03 05:19:39;;;;;;;18.42;8.98;;;-0.50;99.90;;;;;;5031413;28;20064;-69
2023/03/03 05:22:04;;;;;;;17.83;8.10;;;-0.50;99.90;;;;;;5023735;28;20479;-68
2023/03/03 05:24:30;;;;;;;15.88;7.78;;;-0.50;99.90;;;;;;5026241;28;20041;-68
2023/03/03 05:26:56;;;;;;;16.63;7.85;;;-0.50;99.90;;;;;;5028066;28;20052;-69
2023/03/03 05:29:21;;;;;;;16.38;7.63;;;-0.50;99.90;;;;;;5030084;28;20041;-69
2023/03/03 05:31:47;;;;;;;15.18;8.45;;;-0.50;99.90;;;;;;5011572;28;20076;-69
2023/03/03 05:34:13;;;;;;;14.30;7.53;;;-0.50;99.90;;;;;;5024993;28;20084;-69
2023/03/03 05:36:38;;;;;;;15.35;8.13;;;-0.50;99.90;;;;;;5029976;28;20483;-69
2023/03/03 05:39:04;;;;;;;16.00;7.65;;;-0.50;99.90;;;;;;5031199;28;20095;-69
2023/03/03 05:41:30;;;;;;;11.82;6.97;;;-0.50;99.90;;;;;;5025501;28;20049;-69
2023/03/03 05:43:55;;;;;;;15.90;8.05;;;-0.60;99.90;;;;;;5031372;28;20057;-69
2023/03/03 05:46:21;;;;;;;17.63;7.85;;;-0.60;99.90;;;;;;5027989;28;20041;-69
2023/03/03 05:48:46;;;;;;;19.10;7.72;;;-0.60;99.90;;;;;;5030459;28;20140;-69
2023/03/03 05:51:12;;;;;;;16.33;7.85;;;-0.70;99.90;;;;;;5031299;28;20054;-69
2023/03/03 05:53:38;;;;;;;17.15;7.47;;;-0.60;99.90;;;;;;5029269;28;20073;-69
2023/03/03 05:56:04;;;;;;;13.43;7.15;;;-0.70;99.90;;;;;;5028269;28;20041;-69
2023/03/03 05:58:29;;;;;;;15.95;7.35;;;-0.60;99.90;;;;;;5029692;28;20042;-67
2023/03/03 06:00:55;;;;;;;16.48;7.63;;;-0.70;99.90;;;;;;5030483;28;20045;-67
2023/03/03 06:03:21;;;;;;;19.67;8.25;;;-0.70;99.90;;;;;;5030333;28;20083;-68
2023/03/03 06:05:47;;;;;;;16.15;7.88;;;-0.70;99.90;;;;;;5030622;28;20111;-69
2023/03/03 06:08:13;;;;;;;15.43;7.63;;;-0.70;99.90;;;;;;5030334;28;20609;-69
2023/03/03 06:10:38;;;;;;;17.80;8.52;;;-0.70;99.90;;;;;;5028983;28;20050;-69
2023/03/03 06:13:04;;;;;;;26.35;7.75;;;-0.70;99.90;;;;;;5025979;28;20053;-69
2023/03/03 06:15:30;;;;;;;15.60;7.13;;;-0.80;99.90;;;;;;5030615;28;20385;-69
2023/03/03 06:17:55;;;;;;;14.23;6.88;;;-0.80;99.90;;;;;;5032774;28;20043;-69
2023/03/03 06:20:21;;;;;;;14.90;8.13;;;-0.80;99.90;;;;;;5038707;28;20041;-69
2023/03/03 06:22:46;;;;;;;14.88;8.13;;;-0.80;99.90;;;;;;5035290;28;20042;-69
2023/03/03 06:25:12;;;;;;;14.25;7.25;;;-0.80;99.90;;;;;;5033338;28;20041;-69
2023/03/03 06:27:38;;;;;;;15.07;7.50;;;-0.80;99.90;;;;;;5035053;28;20030;-69
2023/03/03 06:30:04;;;;;;;12.55;7.25;;;-0.80;99.90;;;;;;5016661;28;20115;-69
2023/03/03 06:32:30;;;;;;;16.60;7.57;;;-0.80;99.90;;;;;;5033112;28;20068;-69
2023/03/03 06:34:55;;;;;;;14.18;7.85;;;-0.80;99.90;;;;;;5030168;28;20482;-69
2023/03/03 06:37:21;;;;;;;19.52;8.25;;;-0.80;99.90;;;;;;5024131;28;20049;-69
2023/03/03 06:39:46;;;;;;;21.25;9.18;;;-0.80;99.90;;;;;;5034390;28;20375;-69
2023/03/03 06:42:12;;;;;;;16.67;8.18;;;-0.80;99.90;;;;;;5035307;28;20077;-69
2023/03/03 06:44:38;;;;;;;15.55;8.77;;;-0.70;99.90;;;;;;5032774;28;20040;-69
2023/03/03 06:47:04;;;;;;;17.85;8.95;;;-0.70;99.90;;;;;;5028576;28;20184;-69
2023/03/03 06:49:30;;;;;;;15.40;8.77;;;-0.60;99.90;;;;;;5030300;28;20537;-69
2023/03/03 06:52:00;;;;;;;23.80;9.68;;;-0.50;99.90;;;;;;5048885;28;20069;-68
2023/03/03 06:54:28;;;;;;;18.13;8.57;;;-0.50;99.90;;;;;;5033991;28;20505;-69
2023/03/03 06:56:57;;;;;;;18.63;9.77;;;-0.40;99.90;;;;;;5033920;28;20525;-69
2023/03/03 06:59:25;;;;;;;15.43;8.60;;;-0.40;99.90;;;;;;5033041;28;20052;-69
2023/03/03 07:01:51;;;;;;;17.38;8.73;;;-0.40;99.90;;;;;;5030645;28;20041;-69
2023/03/03 07:04:29;;;;;;;18.20;8.43;;;-0.30;99.90;;;;;;5028681;28;20470;-69
2023/03/03 07:06:58;;;;;;;16.30;9.20;;;-0.30;99.90;;;;;;5032465;28;20045;-69
2023/03/03 07:09:28;;;;;;;17.15;9.10;;;-0.30;99.90;;;;;;5023643;28;20045;-69
2023/03/03 07:12:31;;;;;;;16.92;8.40;;;-0.30;99.90;;;;;;5028837;28;20088;-69
2023/03/03 07:15:25;;;;;;;19.17;9.05;;;-0.20;99.90;;;;;;5025782;28;20556;-69
2023/03/03 07:17:58;;;;;;;16.55;9.23;;;0.00;99.90;;;;;;5036708;28;20508;-69
2023/03/03 07:20:32;;;;;;;19.75;9.23;;;0.10;99.90;;;;;;5030719;28;20042;-69
2023/03/03 07:22:58;;;;;;;21.02;10.98;;;0.30;99.90;;;;;;5026250;28;20044;-69
2023/03/03 07:25:34;;;;;;;19.98;10.75;;;0.50;99.90;;;;;;5027306;28;20042;-69
2023/03/03 07:28:21;;;;;;;23.17;11.57;;;0.60;99.90;;;;;;5031234;28;20034;-69
2023/03/03 07:30:47;;;;;;;20.10;10.73;;;0.80;99.90;;;;;;5031312;28;20049;-69
2023/03/03 07:33:42;;;;;;;23.92;11.32;;;0.90;99.90;;;;;;5032601;28;20041;-69
2023/03/03 07:36:23;;;;;;;24.27;10.60;;;1.00;99.90;;;;;;5030972;28;20049;-70
2023/03/03 07:38:58;;;;;;;16.85;9.55;;;1.10;99.90;;;;;;5030894;28;20045;-69
2023/03/03 07:41:23;;;;;;;15.93;9.80;;;1.20;99.90;;;;;;5032996;28;20053;-69
2023/03/03 07:43:53;;;;;;;19.63;10.63;;;1.30;99.90;;;;;;5032999;28;20387;-69
2023/03/03 07:46:24;;;;;;;17.80;10.88;;;1.30;99.90;;;;;;5032355;28;20506;-69
2023/03/03 07:48:51;;;;;;;22.75;10.55;;;1.30;99.90;;;;;;5032316;28;20041;-69
2023/03/03 07:51:26;;;;;;;19.42;10.27;;;1.50;99.90;;;;;;5032921;28;20038;-69
2023/03/03 07:54:13;;;;;;;20.00;9.77;;;1.50;99.90;;;;;;5032243;28;20517;-69
2023/03/03 07:56:39;;;;;;;15.15;8.63;;;1.60;99.90;;;;;;5025375;28;20088;-69
2023/03/03 07:59:28;;;;;;;23.48;9.98;;;1.70;99.90;;;;;;5030836;28;20073;-69
2023/03/03 08:01:57;;;;;;;18.77;9.18;;;1.80;99.90;;;;;;5032632;28;20474;-69
2023/03/03 08:04:38;;;;;;;19.42;9.40;;;1.90;99.90;;;;;;5027943;28;20030;-69
2023/03/03 08:07:12;;;;;;;19.30;8.93;;;1.90;99.90;;;;;;5030012;28;20054;-69
2023/03/03 08:09:42;;;;;;;17.90;8.00;;;2.10;99.90;;;;;;5029641;28;20057;-70
2023/03/03 08:12:35;;;;;;;24.50;9.38;;;2.20;99.90;;;;;;5026143;28;20033;-69
2023/03/03 08:15:21;;;;;;;18.85;8.30;;;2.30;99.90;;;;;;5028926;28;20045;-69
2023/03/03 08:17:48;;;;;;;16.33;7.80;;;2.40;99.90;;;;;;5031604;28;20100;-69
2023/03/03 08:20:35;;;;;;;16.45;7.68;;;2.60;99.90;;;;;;5030060;28;20041;-69
2023/03/03 08:23:01;;;;;;;16.35;7.32;;;2.50;99.90;;;;;;5026572;28;20586;-71
2023/03/03 08:25:27;;;;;;;14.90;6.65;;;2.70;99.90;;;;;;5026597;28;20140;-69
2023/03/03 08:27:52;;;;;;;21.40;6.30;;;2.70;99.90;;;;;;5021564;28;20049;-70
2023/03/03 08:30:18;;;;;;;14.93;6.03;;;2.80;99.90;;;;;;5025895;28;20458;-69
2023/03/03 08:32:43;;;;;;;16.95;7.10;;;2.80;99.90;;;;;;5024404;28;20033;-69
2023/03/03 08:35:09;;;;;;;14.00;6.25;;;2.90;99.90;;;;;;5029094;28;20038;-69
2023/03/03 08:37:35;;;;;;;12.38;5.72;;;2.90;99.90;;;;;;5031105;28;20426;-70
2023/03/03 08:40:00;;;;;;;14.20;6.75;;;3.00;99.90;;;;;;5033483;28;20124;-69
2023/03/03 08:42:28;;;;;;;11.10;6.00;;;3.10;99.90;;;;;;5029896;28;20033;-69
2023/03/03 08:44:54;;;;;;;13.35;6.97;;;3.10;99.90;;;;;;5032826;28;20041;-69
2023/03/03 08:47:20;;;;;;;15.02;7.00;;;3.20;99.90;;;;;;5029747;28;20045;-70
2023/03/03 08:49:45;;;;;;;15.40;6.50;;;3.30;99.90;;;;;;5044258;28;20084;-69
2023/03/03 08:52:11;;;;;;;14.48;7.38;;;3.30;99.90;;;;;;5031677;28;20099;-70
2023/03/03 08:54:37;;;;;;;10.43;6.10;;;3.40;99.90;;;;;;5033201;28;20033;-71
2023/03/03 08:57:02;;;;;;;13.07;5.90;;;3.40;99.90;;;;;;5033596;28;20069;-70
2023/03/03 08:59:28;;;;;;;15.05;5.53;;;3.50;99.90;;;;;;5032512;28;20388;-70
2023/03/03 09:01:54;;;;;;;11.90;5.88;;;3.60;99.90;;;;;;5032425;28;20076;-70
2023/03/03 09:04:19;;;;;;;16.15;5.50;;;3.70;99.90;;;;;;5032198;28;20049;-69
2023/03/03 09:06:45;;;;;;;11.52;6.63;;;3.80;99.90;;;;;;5031767;28;20444;-70
2023/03/03 09:09:10;;;;;;;13.48;5.95;;;3.90;99.90;;;;;;5030712;28;20128;-70
2023/03/03 09:11:36;;;;;;;11.32;5.43;;;4.00;99.90;;;;;;5026105;28;20037;-69
2023/03/03 09:14:16;;;;;;;12.20;5.78;;;4.10;99.90;;;;;;5032020;28;20091;-69
2023/03/03 09:16:51;;;;;;;13.02;6.75;;;4.20;99.90;;;;;;5022901;28;20037;-70
2023/03/03 09:19:22;;;;;;;12.45;6.85;;;4.30;99.90;;;;;;5024437;28;20045;-70
2023/03/03 09:21:51;;;;;;;21.98;7.85;;;4.40;99.90;;;;;;5026972;28;20133;-70
2023/03/03 09:24:20;;;;;;;;;;;4.60;99.90;;;;;;5026503;28;20391;-70
2023/03/03 09:26:47;;;;;;;18.55;7.15;;;4.70;99.90;;;;;;5029957;28;19928;-69
2023/03/03 09:29:24;;;;;;;10.80;7.05;;;4.80;99.90;;;;;;5031265;28;20052;-68
2023/03/03 09:32:20;;;;;;;16.40;8.55;;;4.90;99.90;;;;;;5031058;28;20041;-68
2023/03/03 09:34:46;;;;;;;17.75;8.45;;;5.10;99.90;;;;;;5031286;28;20099;-68
2023/03/03 09:37:25;;;;;;;14.93;8.50;;;5.20;99.90;;;;;;5028871;28;20099;-68
2023/03/03 09:39:59;;;;;;;12.02;6.45;;;5.50;99.90;;;;;;5029848;28;20080;-68
2023/03/03 09:43:08;;;;;;;10.48;6.57;;;5.60;99.90;;;;;;5030419;28;20449;-68
2023/03/03 09:45:43;;;;;;;11.15;5.90;;;5.80;99.90;;;;;;5030339;28;20532;-68
2023/03/03 09:48:16;;;;;;;13.00;6.45;;;5.90;99.90;;;;;;5046961;28;20037;-68
2023/03/03 09:51:10;;;;;;;10.98;5.85;;;5.90;99.90;;;;;;5034440;28;20049;-68
2023/03/03 09:54:13;;;;;;;9.13;5.35;;;6.00;99.90;;;;;;5027829;28;20486;-68
2023/03/03 09:56:43;;;;;;;10.75;5.85;;;6.10;99.90;;;;;;5025905;28;20045;-68
2023/03/03 09:59:27;;;;;;;12.98;6.55;;;6.10;99.90;;;;;;5032094;28;20137;-68
2023/03/03 10:02:14;;;;;;;13.07;6.30;;;6.10;99.90;;;;;;5033970;28;20049;-68
2023/03/03 10:04:42;;;;;;;12.80;5.60;;;6.10;99.90;;;;;;5019930;28;20483;-68
2023/03/03 10:07:08;;;;;;;8.95;4.18;;;6.20;99.90;;;;;;5026860;28;20064;-68
2023/03/03 10:09:58;;;;;;;13.85;4.10;;;6.30;99.90;;;;;;5034502;28;20054;-68
2023/03/03 10:12:23;;;;;;;;;;;6.30;99.90;;;;;;5017722;28;20104;-68
2023/03/03 10:15:10;;;;;;;11.73;4.00;;;6.20;99.90;;;;;;5028944;28;20313;-68
2023/03/03 10:17:51;;;;;;;8.38;4.30;;;6.20;99.90;;;;;;5036191;28;20050;-68
2023/03/03 10:20:32;;;;;;;10.70;4.05;;;6.20;99.90;;;;;;5036581;28;20495;-68
2023/03/03 10:23:19;;;;;;;11.15;3.90;;;6.20;99.90;;;;;;5036577;28;20081;-69
2023/03/03 10:25:48;;;;;;;10.85;3.53;;;6.30;99.90;;;;;;5031228;28;20038;-69
2023/03/03 10:28:29;;;;;;;11.45;3.55;;;6.40;99.90;;;;;;5036395;28;20182;-68
2023/03/03 10:31:33;;;;;;;7.35;3.58;;;6.50;99.90;;;;;;5034154;28;20065;-68
2023/03/03 10:34:20;;;;;;;14.27;4.07;;;6.50;99.90;;;;;;5036355;28;20213;-68
2023/03/03 10:37:10;;;;;;;9.60;3.40;;;6.60;99.90;;;;;;5034125;28;20525;-68
2023/03/03 10:40:09;;;;;;;5.55;2.70;;;6.70;99.90;;;;;;5033974;28;20095;-68
2023/03/03 10:43:01;;;;;;;8.43;2.80;;;6.80;99.90;;;;;;5018501;28;20046;-69
2023/03/03 10:45:58;;;;;;;5.60;1.83;;;6.90;99.90;;;;;;5035261;28;20037;-68
2023/03/03 10:48:29;;;;;;;8.48;2.22;;;7.00;99.90;;;;;;5050192;28;20663;-68
2023/03/03 10:51:21;;;;;;;8.38;2.38;;;7.10;99.90;;;;;;5035113;28;20124;-68
2023/03/03 10:53:58;;;;;;;5.53;1.95;;;7.20;99.90;;;;;;5035965;28;20124;-68
2023/03/03 10:56:48;;;;;;;6.05;2.20;;;7.20;99.90;;;;;;5034795;28;20136;-68
2023/03/03 10:59:26;;;;;;;6.07;1.50;;;7.30;99.90;;;;;;5041497;28;20124;-68
2023/03/03 11:02:05;;;;;;;7.32;1.60;;;7.40;99.90;;;;;;5029873;28;20045;-68
2023/03/03 11:04:34;;;;;;;6.95;1.40;;;7.30;99.90;;;;;;5028934;28;20057;-68
2023/03/03 11:07:07;;;;;;;5.72;1.30;;;7.30;99.90;;;;;;5032356;28;20041;-69
2023/03/03 11:09:33;;;;;;;6.15;1.60;;;7.30;99.90;;;;;;5027615;28;20057;-68
2023/03/03 11:12:05;;;;;;;6.82;1.60;;;7.30;99.90;;;;;;5031382;28;20052;-68
2023/03/03 11:14:46;;;;;;;2.55;1.27;;;7.30;99.90;;;;;;5034720;28;20057;-67
2023/03/03 11:17:41;;;;;;;4.53;1.50;;;7.40;99.90;;;;;;5031971;28;20378;-68
2023/03/03 11:20:24;;;;;;;4.65;1.45;;;8.00;99.90;;;;;;5034766;28;20045;-68
2023/03/03 11:23:25;;;;;;;4.00;1.00;;;8.40;99.90;;;;;;5024696;28;20049;-68
2023/03/03 11:26:17;;;;;;;4.28;1.70;;;8.40;99.90;;;;;;5046501;28;20497;-67
2023/03/03 11:28:54;;;;;;;5.22;1.20;;;8.20;99.90;;;;;;5033063;28;20045;-68
2023/03/03 11:31:19;;;;;;;3.30;1.10;;;8.00;99.90;;;;;;5024653;28;20049;-67
2023/03/03 11:34:06;;;;;;;4.45;1.40;;;7.90;99.90;;;;;;5033428;28;20052;-68
2023/03/03 11:36:38;;;;;;;8.02;1.27;;;7.80;99.90;;;;;;5030458;28;20045;-67
2023/03/03 11:39:08;;;;;;;4.15;1.30;;;7.70;99.90;;;;;;5031509;28;20551;-67
2023/03/03 11:41:39;;;;;;;3.67;1.17;;;7.60;99.90;;;;;;5032567;28;20045;-67
2023/03/03 11:44:23;;;;;;;10.27;1.98;;;7.60;99.90;;;;;;5033249;28;20045;-67
2023/03/03 11:46:58;;;;;;;3.55;1.30;;;7.40;99.90;;;;;;5017842;28;20045;-68
2023/03/03 11:49:49;;;;;;;7.90;1.35;;;7.90;99.90;;;;;;5023338;28;20053;-68
2023/03/03 11:52:29;;;;;;;8.45;1.80;;;8.90;99.90;;;;;;5014790;28;20041;-68
2023/03/03 11:55:06;;;;;;;4.40;1.30;;;9.40;99.90;;;;;;5018491;28;20044;-68
2023/03/03 11:57:42;;;;;;;5.60;1.45;;;9.80;99.90;;;;;;5016199;28;20057;-68
2023/03/03 12:00:25;;;;;;;6.55;1.40;;;9.90;99.90;;;;;;5015144;28;20049;-68
2023/03/03 12:03:00;;;;;;;7.85;1.27;;;9.70;99.90;;;;;;5025805;28;20042;-69
2023/03/03 12:05:35;;;;;;;7.95;2.25;;;9.40;99.90;;;;;;5022829;28;20045;-69
2023/03/03 12:08:19;;;;;;;7.43;1.48;;;9.20;99.90;;;;;;5029912;28;20421;-69
2023/03/03 12:10:51;;;;;;;6.82;1.35;;;9.00;99.90;;;;;;5033133;28;20041;-69
2023/03/03 12:14:09;;;;;;;6.57;1.63;;;9.30;99.90;;;;;;5032211;28;20059;-69
2023/03/03 12:17:02;;;;;;;7.25;1.77;;;9.40;99.90;;;;;;5024214;28;20049;-69
2023/03/03 12:19:31;;;;;;;7.82;1.80;;;9.30;99.90;;;;;;5021143;28;20132;-68
2023/03/03 12:22:08;;;;;;;9.38;1.60;;;9.10;99.90;;;;;;5029103;28;20072;-68
2023/03/03 12:24:53;;;;;;;8.30;1.58;;;9.10;99.90;;;;;;5031025;28;20053;-69
2023/03/03 12:27:39;;;;;;;5.25;1.60;;;9.00;99.90;;;;;;5051108;28;20084;-68
2023/03/03 12:30:09;;;;;;;4.90;1.38;;;9.00;99.90;;;;;;5022499;28;20053;-68
2023/03/03 12:33:06;;;;;;;9.43;2.05;;;8.70;99.90;;;;;;5024737;28;20053;-68
2023/03/03 12:36:09;;;;;;;7.22;1.42;;;8.70;99.90;;;;;;5032220;28;20042;-68
2023/03/03 12:38:48;;;;;;;4.80;1.45;;;8.50;99.90;;;;;;5029589;28;20128;-69
2023/03/03 12:41:16;;;;;;;;;;;8.50;99.90;;;;;;5029261;28;20080;-68
2023/03/03 12:44:01;;;;;;;10.65;1.70;;;8.50;99.90;;;;;;5028951;28;19927;-67
2023/03/03 12:46:43;;;;;;;10.93;2.13;;;8.40;99.90;;;;;;5029798;28;20034;-67
2023/03/03 12:49:08;;;;;;;13.00;1.90;;;8.40;99.90;;;;;;5013491;28;20093;-68
2023/03/03 12:52:07;;;;;;;12.05;1.85;;;8.30;99.90;;;;;;5030201;28;20488;-67
2023/03/03 12:54:57;;;;;;;14.63;2.85;;;8.40;99.90;;;;;;5028310;28;20041;-68
2023/03/03 12:58:05;;;;;;;10.60;1.55;;;8.40;99.90;;;;;;5032250;28;20055;-68
2023/03/03 13:00:49;;;;;;;6.30;1.58;;;8.60;99.90;;;;;;5027206;28;20053;-68
2023/03/03 13:03:41;;;;;;;14.65;2.15;;;8.60;99.90;;;;;;5025801;28;20132;-68
2023/03/03 13:06:28;;;;;;;11.18;2.25;;;8.60;99.90;;;;;;5027171;28;20050;-68
2023/03/03 13:09:13;;;;;;;9.13;2.35;;;8.60;99.90;;;;;;5024580;28;20045;-68
2023/03/03 13:11:53;;;;;;;10.07;2.10;;;8.60;99.90;;;;;;5024055;28;20099;-68